Time;durP1;ratioP1;P1;durP2;ratioP2;P2;SDS_P1;SDS_P2;PMS_P1;PMS_P2;Temp;Humidity;BMP_temperature;BMP_pressure;BME280_temperature;BME280_humidity;BME280_pressure;Samples;Min_cycle;Max_cycle;Signal;HPM_P1;HPM_P2
2024/01/08 00:00:47;;;;;;;10.33;6.83;;;;;;;10.65;100.00;100102.69;2078569;28;20268;-73
2024/01/08 00:01:51;;;;;;;9.27;6.93;;;;;;;10.69;100.00;100108.13;2078538;28;20181;-73
2024/01/08 00:02:52;;;;;;;9.27;6.43;;;;;;;10.72;100.00;100102.47;2079197;28;20847;-73
2024/01/08 00:03:53;;;;;;;12.13;7.53;;;;;;;10.72;100.00;100104.47;2077999;28;20890;-73
2024/01/08 00:04:53;;;;;;;10.77;7.43;;;;;;;10.73;100.00;100103.25;2079900;28;20189;-73
2024/01/08 00:05:53;;;;;;;11.70;7.40;;;;;;;10.70;100.00;100106.91;2078676;28;20274;-73
2024/01/08 00:06:54;;;;;;;11.50;7.47;;;;;;;10.71;100.00;100108.47;2078749;28;20193;-73
2024/01/08 00:07:54;;;;;;;9.47;7.07;;;;;;;10.69;100.00;100106.13;2079236;28;20193;-73
2024/01/08 00:08:55;;;;;;;10.83;7.00;;;;;;;10.69;100.00;100106.13;2078529;28;20732;-73
2024/01/08 00:09:55;;;;;;;10.00;6.77;;;;;;;10.72;100.00;100108.00;2079101;28;20857;-73
2024/01/08 00:10:56;;;;;;;12.07;7.50;;;;;;;10.67;100.00;100116.88;2078302;28;20246;-73
2024/01/08 00:11:56;;;;;;;10.93;7.57;;;;;;;10.66;100.00;100111.81;2078630;28;20263;-73
2024/01/08 00:12:57;;;;;;;12.53;7.50;;;;;;;10.65;100.00;100110.25;2079477;28;20189;-73
2024/01/08 00:13:57;;;;;;;10.93;6.60;;;;;;;10.21;100.00;100048.34;2079298;28;20198;-73
2024/01/08 00:14:58;;;;;;;10.00;7.27;;;;;;;10.54;100.00;100105.03;2078971;28;20197;-73
2024/01/08 00:15:58;;;;;;;10.67;7.20;;;;;;;10.59;100.00;100114.78;2078962;28;20674;-73
2024/01/08 00:16:59;;;;;;;9.87;6.57;;;;;;;10.58;100.00;100116.00;2079249;28;20196;-73
2024/01/08 00:17:59;;;;;;;9.97;6.40;;;;;;;10.52;100.00;100107.50;2078769;28;20276;-73
2024/01/08 00:19:00;;;;;;;11.03;6.80;;;;;;;10.48;100.00;100097.72;2078442;28;20189;-73
2024/01/08 00:20:01;;;;;;;10.10;6.13;;;;;;;10.56;100.00;100121.97;2078827;28;20189;-73
2024/01/08 00:21:02;;;;;;;9.60;6.43;;;;;;;10.55;100.00;100117.66;2078053;28;20264;-73
2024/01/08 00:22:03;;;;;;;9.40;6.33;;;;;;;10.53;100.00;100127.66;2079668;28;20713;-73
2024/01/08 00:23:03;;;;;;;8.90;6.00;;;;;;;9.56;100.00;99985.47;2078111;28;20839;-73
2024/01/08 00:24:04;;;;;;;10.17;6.20;;;;;;;10.52;100.00;100128.88;2078451;28;20200;-73
2024/01/08 00:25:06;;;;;;;11.97;6.77;;;;;;;10.03;100.00;100058.34;2078695;28;20197;-73
2024/01/08 00:26:06;;;;;;;11.17;6.77;;;;;;;10.51;100.00;100127.31;2079225;28;20210;-73
2024/01/08 00:27:07;;;;;;;10.30;6.63;;;;;;;10.51;100.00;100125.31;2078808;28;20859;-73
2024/01/08 00:28:07;;;;;;;8.97;6.43;;;;;;;10.51;100.00;100119.00;2078696;28;20177;-73
2024/01/08 00:29:08;;;;;;;9.40;5.60;;;;;;;10.50;100.00;100123.75;2078297;28;20221;-73
2024/01/08 00:30:09;;;;;;;9.70;5.90;;;;;;;10.42;100.00;100118.91;2079618;28;20515;-73
2024/01/08 00:31:09;;;;;;;10.30;6.40;;;;;;;10.51;100.00;100133.63;2077423;28;20193;-73
2024/01/08 00:32:10;;;;;;;12.33;6.43;;;;;;;10.53;100.00;100133.97;2078833;28;20431;-73
2024/01/08 00:33:10;;;;;;;9.77;6.13;;;;;;;10.57;100.00;100136.63;2077621;28;20204;-73
2024/01/08 00:34:11;;;;;;;9.07;6.17;;;;;;;10.25;100.00;100093.28;2078151;28;20188;-73
2024/01/08 00:35:12;;;;;;;9.90;6.10;;;;;;;10.58;100.00;100135.41;2078941;28;20193;-73
2024/01/08 00:36:12;;;;;;;9.87;6.10;;;;;;;10.61;100.00;100140.81;2085841;28;20211;-73
2024/01/08 00:37:13;;;;;;;10.67;6.47;;;;;;;9.88;100.00;100046.94;2086026;28;20191;-73
2024/01/08 00:38:13;;;;;;;8.77;6.20;;;;;;;10.53;100.00;100145.06;2078682;28;20646;-73
2024/01/08 00:39:14;;;;;;;10.53;6.50;;;;;;;10.18;100.00;100103.81;2079396;28;20184;-73
2024/01/08 00:40:14;;;;;;;9.33;5.53;;;;;;;10.48;100.00;100148.38;2078897;28;20242;-73
2024/01/08 00:41:15;;;;;;;8.97;5.67;;;;;;;10.43;100.00;100142.59;2078126;28;20213;-73
2024/01/08 00:42:15;;;;;;;9.50;6.33;;;;;;;10.43;100.00;100143.38;2078764;28;20212;-73
2024/01/08 00:43:16;;;;;;;8.57;5.93;;;;;;;10.44;100.00;100144.16;2078391;28;20193;-73
2024/01/08 00:44:17;;;;;;;11.83;6.10;;;;;;;9.80;100.00;100048.41;2078419;28;20262;-73
2024/01/08 00:45:17;;;;;;;13.83;7.23;;;;;;;10.39;100.00;100142.72;2077797;28;20181;-73
2024/01/08 00:46:18;;;;;;;9.60;6.20;;;;;;;10.39;100.00;100145.47;2078221;28;20690;-73
2024/01/08 00:47:18;;;;;;;10.03;5.57;;;;;;;10.40;100.00;100146.28;2079688;28;20188;-73
2024/01/08 00:48:19;;;;;;;15.53;7.00;;;;;;;10.35;100.00;100142.03;2078576;28;20740;-73
2024/01/08 00:49:19;;;;;;;7.97;6.10;;;;;;;10.04;100.00;100087.66;2078691;28;20658;-73
2024/01/08 00:50:20;;;;;;;9.33;6.10;;;;;;;10.48;100.00;100147.59;2077761;28;20208;-73
2024/01/08 00:51:20;;;;;;;9.33;6.03;;;;;;;10.43;100.00;100143.38;2078628;28;20250;-73
2024/01/08 00:52:21;;;;;;;10.43;6.80;;;;;;;10.46;100.00;100142.47;2078848;28;20750;-71
2024/01/08 00:53:21;;;;;;;9.40;6.13;;;;;;;10.55;100.00;100150.91;2078261;28;20930;-71
2024/01/08 00:54:22;;;;;;;9.73;6.53;;;;;;;10.59;100.00;100156.34;2078609;28;20666;-71
2024/01/08 00:55:22;;;;;;;10.00;6.70;;;;;;;9.89;100.00;100044.97;2079324;28;20185;-71
2024/01/08 00:56:23;;;;;;;9.87;6.50;;;;;;;10.63;100.00;100155.03;2078636;28;20275;-71
2024/01/08 00:57:23;;;;;;;10.97;7.23;;;;;;;10.56;100.00;100141.38;2078017;28;20188;-71
2024/01/08 00:58:24;;;;;;;11.77;7.00;;;;;;;10.67;100.00;100161.22;2077400;28;20217;-71
2024/01/08 00:59:24;;;;;;;10.83;7.03;;;;;;;10.69;100.00;100169.09;2078791;28;20196;-71
2024/01/08 01:00:25;;;;;;;12.80;7.70;;;;;;;10.65;100.00;100154.59;2077304;28;20280;-71
2024/01/08 01:01:26;;;;;;;10.47;7.03;;;;;;;10.19;100.00;100091.53;2078680;28;20188;-71
2024/01/08 01:02:26;;;;;;;13.63;7.03;;;;;;;10.51;100.00;100143.94;2078497;28;20239;-71
2024/01/08 01:03:27;;;;;;;11.13;6.50;;;;;;;10.69;100.00;100163.53;2078975;28;20453;-71
2024/01/08 01:04:27;;;;;;;8.87;6.10;;;;;;;10.60;100.00;100155.16;2078266;28;20287;-71
2024/01/08 01:05:28;;;;;;;13.43;7.03;;;;;;;10.66;100.00;100164.44;2078863;28;20318;-71
2024/01/08 01:06:29;;;;;;;10.63;6.50;;;;;;;10.64;100.00;100156.56;2079985;28;20192;-71
2024/01/08 01:07:29;;;;;;;10.33;6.87;;;;;;;10.53;100.00;100147.81;2080433;28;20238;-71
2024/01/08 01:08:30;;;;;;;10.23;6.20;;;;;;;10.70;100.00;100178.94;2080375;28;20185;-71
2024/01/08 01:09:30;;;;;;;11.10;6.83;;;;;;;10.12;100.00;100086.19;2079916;28;20177;-71
2024/01/08 01:10:31;;;;;;;10.67;6.27;;;;;;;10.75;100.00;100170.09;2080370;28;20538;-71
2024/01/08 01:11:31;;;;;;;10.37;6.37;;;;;;;10.65;100.00;100171.97;2079997;28;20204;-71
2024/01/08 01:12:32;;;;;;;13.53;6.27;;;;;;;9.92;100.00;100074.50;2080315;28;20185;-71
2024/01/08 01:13:32;;;;;;;10.97;6.47;;;;;;;10.50;100.00;100167.34;2080166;28;20267;-71
2024/01/08 01:14:33;;;;;;;10.07;6.20;;;;;;;10.35;100.00;100169.75;2080508;28;20212;-71
2024/01/08 01:15:33;;;;;;;10.70;6.03;;;;;;;10.32;100.00;100170.63;2079561;28;20250;-71
2024/01/08 01:16:34;;;;;;;8.10;5.47;;;;;;;10.28;100.00;100186.56;2079757;28;20312;-71
2024/01/08 01:17:34;;;;;;;10.63;5.73;;;;;;;10.18;100.00;100182.13;2080106;28;20184;-71
2024/01/08 01:18:35;;;;;;;8.17;4.80;;;;;;;10.09;100.00;100184.75;2079706;28;20191;-71
2024/01/08 01:19:35;;;;;;;9.37;5.83;;;;;;;9.94;100.00;100169.72;2080946;28;20181;-71
2024/01/08 01:20:36;;;;;;;7.67;5.07;;;;;;;9.97;100.00;100188.25;2079737;28;20200;-71
2024/01/08 01:21:36;;;;;;;7.97;5.23;;;;;;;9.95;100.00;100192.66;2079756;28;20192;-71
2024/01/08 01:22:37;;;;;;;11.13;5.23;;;;;;;9.89;100.00;100191.66;2079721;28;20192;-71
2024/01/08 01:23:37;;;;;;;7.50;4.83;;;;;;;9.91;100.00;100190.00;2079960;28;20274;-71
2024/01/08 01:24:38;;;;;;;7.23;4.60;;;;;;;9.79;100.00;100187.19;2080334;28;20206;-71
2024/01/08 01:25:38;;;;;;;6.73;3.63;;;;;;;9.71;100.00;100197.66;2080179;28;20659;-70
2024/01/08 01:26:39;;;;;;;4.97;3.83;;;;;;;9.57;100.00;100195.28;2080379;28;20192;-71
2024/01/08 01:27:40;;;;;;;3.50;2.70;;;;;;;9.41;100.00;100203.59;2080672;28;20274;-72
2024/01/08 01:28:41;;;;;;;4.53;2.53;;;;;;;9.32;100.00;100195.13;2080554;28;20263;-73
2024/01/08 01:29:42;;;;;;;4.00;2.70;;;;;;;9.22;100.00;100187.13;2080116;28;20196;-73
2024/01/08 01:30:43;;;;;;;3.57;2.43;;;;;;;8.40;100.00;100096.38;2079451;28;20565;-73
2024/01/08 01:31:43;;;;;;;1.83;1.40;;;;;;;8.97;100.00;100193.25;2079457;28;20190;-72
2024/01/08 01:32:44;;;;;;;2.10;1.20;;;;;;;8.64;100.00;100161.28;2078923;28;20543;-72
2024/01/08 01:33:44;;;;;;;3.03;2.17;;;;;;;8.87;100.00;100202.56;2079783;28;20179;-72
2024/01/08 01:34:45;;;;;;;1.83;1.43;;;;;;;8.84;100.00;100205.41;2080459;28;20177;-73
2024/01/08 01:35:45;;;;;;;1.83;1.40;;;;;;;8.75;100.00;100208.00;2080886;28;20195;-73
2024/01/08 01:36:47;;;;;;;3.70;2.00;;;;;;;8.70;100.00;100205.75;2080004;28;20189;-73
2024/01/08 01:37:47;;;;;;;2.45;1.77;;;;;;;8.51;100.00;100192.78;2079733;28;20193;-73
2024/01/08 01:38:48;;;;;;;2.13;1.50;;;;;;;8.52;100.00;100211.69;2080534;28;20432;-73
2024/01/08 01:39:48;;;;;;;2.43;1.47;;;;;;;8.40;100.00;100209.56;2079970;28;20193;-73
2024/01/08 01:40:49;;;;;;;1.70;1.20;;;;;;;8.08;100.00;100175.53;2079715;28;20663;-73
2024/01/08 01:41:52;;;;;;;2.10;1.30;;;;;;;8.28;100.00;100206.69;2079977;28;20576;-72
2024/01/08 01:42:54;;;;;;;2.83;1.50;;;;;;;8.31;100.00;100219.66;2080139;28;20273;-72
2024/01/08 01:43:55;;;;;;;1.90;1.55;;;;;;;7.60;100.00;100120.16;2079250;28;20692;-72
2024/01/08 01:44:55;;;;;;;2.07;1.37;;;;;;;8.20;100.00;100217.09;2080820;28;20182;-72
2024/01/08 01:46:00;;;;;;;1.80;1.17;;;;;;;7.47;100.00;100133.03;2080115;28;20635;-72
2024/01/08 01:47:01;;;;;;;2.30;1.48;;;;;;;8.17;100.00;100233.69;2079658;28;20194;-72
2024/01/08 01:48:02;;;;;;;1.67;1.17;;;;;;;8.13;100.00;100224.69;2079934;28;20272;-72
2024/01/08 01:49:04;;;;;;;1.80;1.43;;;;;;;8.12;100.00;100228.66;2080170;28;20189;-73
2024/01/08 01:50:07;;;;;;;1.67;1.20;;;;;;;8.05;100.00;100224.06;2079833;28;20206;-73
2024/01/08 01:51:08;;;;;;;2.08;1.13;;;;;;;8.01;100.00;100226.13;2078815;28;20193;-72
2024/01/08 01:52:10;;;;;;;2.47;1.80;;;;;;;7.95;100.00;100222.28;2079198;28;20246;-72
2024/01/08 01:53:10;;;;;;;2.88;1.73;;;;;;;7.98;100.00;100242.75;2079344;28;20462;-73
2024/01/08 01:54:16;;;;;;;1.33;0.90;;;;;;;6.89;100.00;100065.63;2079860;28;20211;-73
2024/01/08 01:55:17;;;;;;;3.00;1.58;;;;;;;7.78;100.00;100190.31;2080695;28;20185;-72
2024/01/08 01:56:18;;;;;;;2.50;1.20;;;;;;;7.98;100.00;100235.25;2079217;28;20286;-73
2024/01/08 01:57:19;;;;;;;1.85;1.35;;;;;;;7.68;100.00;100198.81;2079474;28;20505;-72
2024/01/08 01:58:21;;;;;;;2.10;1.40;;;;;;;7.96;100.00;100242.41;2079987;28;20190;-72
2024/01/08 01:59:23;;;;;;;2.70;1.60;;;;;;;7.91;100.00;100242.88;2079901;28;20212;-72
2024/01/08 02:00:23;;;;;;;2.13;1.55;;;;;;;7.91;100.00;100245.66;2078498;28;20435;-73
2024/01/08 02:01:24;;;;;;;2.03;1.47;;;;;;;7.80;100.00;100237.56;2079525;28;20258;-72
2024/01/08 02:02:27;;;;;;;1.60;1.20;;;;;;;7.69;100.00;100238.97;2079819;28;20278;-72
2024/01/08 02:03:28;;;;;;;3.22;1.70;;;;;;;7.56;100.00;100227.00;2079443;28;20178;-72
2024/01/08 02:04:30;;;;;;;1.88;1.50;;;;;;;7.24;100.00;100190.94;2080684;28;20190;-73
2024/01/08 02:05:30;;;;;;;1.08;0.90;;;;;;;7.53;100.00;100238.88;2080145;28;20189;-73
2024/01/08 02:06:31;;;;;;;2.43;1.30;;;;;;;7.57;100.00;100254.16;2080324;28;20289;-72
2024/01/08 02:07:32;;;;;;;2.80;1.40;;;;;;;6.89;100.00;100147.47;2079619;28;20193;-73
2024/01/08 02:08:33;;;;;;;2.57;1.67;;;;;;;7.38;100.00;100234.81;2079270;28;20196;-72
2024/01/08 02:09:34;;;;;;;1.52;0.90;;;;;;;7.50;100.00;100245.22;2079923;28;20447;-73
2024/01/08 02:10:36;;;;;;;2.10;1.40;;;;;;;7.41;100.00;100253.25;2079435;28;20185;-73
2024/01/08 02:11:37;;;;;;;2.17;1.65;;;;;;;7.42;100.00;100249.28;2079930;28;20757;-73
2024/01/08 02:12:37;;;;;;;1.92;1.33;;;;;;;7.36;100.00;100249.00;2079716;28;20177;-73
2024/01/08 02:13:38;;;;;;;2.67;1.97;;;;;;;7.32;100.00;100256.53;2079345;28;20185;-72
2024/01/08 02:14:39;;;;;;;2.47;1.80;;;;;;;7.36;100.00;100246.25;2078729;28;20203;-72
2024/01/08 02:15:39;;;;;;;3.17;1.93;;;;;;;7.38;100.00;100257.63;2079870;28;20207;-72
2024/01/08 02:16:41;;;;;;;2.37;1.30;;;;;;;7.19;100.00;100218.97;2079693;28;20190;-72
2024/01/08 02:17:42;;;;;;;1.67;1.20;;;;;;;7.40;100.00;100265.47;2078905;28;20259;-73
2024/01/08 02:18:42;;;;;;;1.60;1.30;;;;;;;7.29;100.00;100253.84;2079673;28;20205;-72
2024/01/08 02:19:43;;;;;;;2.63;1.83;;;;;;;7.36;100.00;100268.28;2079453;28;20189;-73
2024/01/08 02:20:43;;;;;;;2.27;1.60;;;;;;;7.32;100.00;100273.09;2079559;28;20189;-73
2024/01/08 02:21:44;;;;;;;1.47;0.93;;;;;;;7.33;100.00;100269.13;2080334;28;20186;-72
2024/01/08 02:22:44;;;;;;;2.17;1.30;;;;;;;6.74;100.00;100181.91;2080127;28;20547;-73
2024/01/08 02:23:45;;;;;;;2.40;1.60;;;;;;;7.27;100.00;100261.75;2079783;28;20306;-73
2024/01/08 02:24:45;;;;;;;2.33;1.80;;;;;;;7.26;100.00;100263.75;2079851;28;20561;-72
2024/01/08 02:25:46;;;;;;;2.90;1.87;;;;;;;6.53;100.00;100155.50;2080164;28;20296;-72
2024/01/08 02:26:46;;;;;;;2.57;2.00;;;;;;;7.34;100.00;100278.19;2080168;28;20197;-73
2024/01/08 02:27:47;;;;;;;2.43;1.50;;;;;;;7.36;100.00;100282.09;2078761;28;20189;-73
2024/01/08 02:28:48;;;;;;;2.07;1.40;;;;;;;7.34;100.00;100280.94;2079820;28;20270;-72
2024/01/08 02:29:48;;;;;;;2.43;1.73;;;;;;;7.27;100.00;100273.56;2079316;28;20207;-72
2024/01/08 02:30:49;;;;;;;3.43;1.37;;;;;;;7.30;100.00;100277.44;2079954;28;20311;-73
2024/01/08 02:31:49;;;;;;;1.97;1.30;;;;;;;7.13;100.00;100259.22;2079676;28;20205;-73
2024/01/08 02:32:50;;;;;;;2.63;1.70;;;;;;;6.90;100.00;100237.16;2080151;28;20682;-72
2024/01/08 02:33:50;;;;;;;2.57;1.60;;;;;;;7.24;100.00;100274.41;2079140;28;20548;-72
2024/01/08 02:34:51;;;;;;;2.93;1.60;;;;;;;7.27;100.00;100284.59;2079323;28;20678;-73
2024/01/08 02:35:51;;;;;;;2.53;1.40;;;;;;;7.19;100.00;100271.34;2078822;28;29791;-73
2024/01/08 02:36:51;;;;;;;2.77;2.00;;;;;;;7.27;100.00;100284.59;2079720;28;20732;-73
2024/01/08 02:37:52;;;;;;;1.70;1.23;;;;;;;7.30;100.00;100281.00;2078658;28;20639;-73
2024/01/08 02:38:53;;;;;;;2.00;1.40;;;;;;;6.54;100.00;100162.56;2079949;28;20667;-72
2024/01/08 02:39:53;;;;;;;1.93;1.40;;;;;;;7.38;100.00;100289.94;2078981;28;20204;-73
2024/01/08 02:40:54;;;;;;;1.87;1.50;;;;;;;7.34;100.00;100289.97;2079396;28;20719;-72
2024/01/08 02:41:54;;;;;;;2.07;1.40;;;;;;;7.33;100.00;100274.63;2079096;28;20627;-73
2024/01/08 02:42:55;;;;;;;2.63;1.50;;;;;;;7.44;100.00;100327.63;2079568;28;20839;-73
2024/01/08 02:43:55;;;;;;;3.00;1.50;;;;;;;7.48;100.00;100298.03;2079477;28;20196;-73
2024/01/08 02:44:57;;;;;;;2.20;1.60;;;;;;;6.67;100.00;100198.56;2079755;28;20575;-72
2024/01/08 02:45:57;;;;;;;1.65;1.25;;;;;;;7.52;100.00;100298.75;2079280;28;20190;-73
2024/01/08 02:46:58;;;;;;;3.17;1.77;;;;;;;6.90;100.00;100206.84;2080364;28;20195;-73
2024/01/08 02:47:59;;;;;;;2.60;1.60;;;;;;;7.52;100.00;100308.97;2079422;28;20200;-72
2024/01/08 02:48:59;;;;;;;2.73;1.80;;;;;;;7.54;100.00;100304.59;2079709;28;20615;-73
2024/01/08 02:50:00;;;;;;;2.50;1.20;;;;;;;7.57;100.00;100308.50;2078908;28;20745;-73
2024/01/08 02:51:01;;;;;;;2.33;1.47;;;;;;;7.65;100.00;100312.72;2078051;28;20219;-73
2024/01/08 02:52:01;;;;;;;2.47;1.37;;;;;;;7.67;100.00;100307.53;2078845;28;20694;-72
2024/01/08 02:53:02;;;;;;;2.07;1.40;;;;;;;6.50;100.00;100136.25;2078716;28;20183;-72
2024/01/08 02:54:02;;;;;;;2.67;1.63;;;;;;;7.14;100.00;100234.03;2078885;28;20196;-73
2024/01/08 02:55:03;;;;;;;2.50;1.47;;;;;;;7.79;100.00;100316.00;2080356;28;20186;-72
2024/01/08 02:56:04;;;;;;;2.07;1.60;;;;;;;7.76;100.00;100318.81;2078658;28;20702;-72
2024/01/08 02:57:04;;;;;;;2.10;1.73;;;;;;;7.79;100.00;100321.53;2079664;28;20196;-72
2024/01/08 02:58:05;;;;;;;3.50;1.57;;;;;;;7.82;100.00;100319.91;2079374;28;20223;-72
2024/01/08 02:59:06;;;;;;;2.50;1.73;;;;;;;7.85;100.00;100325.34;2079617;28;20277;-72
2024/01/08 03:00:08;;;;;;;2.57;1.40;;;;;;;7.87;100.00;100322.97;2079579;28;20620;-72
2024/01/08 03:01:09;;;;;;;2.72;1.60;;;;;;;7.78;100.00;100313.66;2078865;28;20212;-72
2024/01/08 03:02:09;;;;;;;2.30;1.30;;;;;;;7.90;100.00;100335.91;2079444;28;20688;-72
2024/01/08 03:03:10;;;;;;;2.53;1.37;;;;;;;7.92;100.00;100333.53;2078811;28;20213;-73
2024/01/08 03:04:12;;;;;;;1.87;1.20;;;;;;;7.94;100.00;100335.88;2079762;28;20186;-72
2024/01/08 03:05:12;;;;;;;4.28;1.55;;;;;;;7.62;100.00;100295.03;2079797;28;20216;-72
2024/01/08 03:06:13;;;;;;;1.63;1.20;;;;;;;8.03;100.00;100338.81;2079564;28;20193;-72
2024/01/08 03:07:17;;;;;;;2.17;1.40;;;;;;;8.05;100.00;100339.22;2079543;28;20298;-72
2024/01/08 03:08:18;;;;;;;1.77;1.33;;;;;;;8.02;100.00;100356.59;2079114;28;20327;-72
2024/01/08 03:09:18;;;;;;;1.70;1.27;;;;;;;7.46;100.00;100255.53;2078688;28;20458;-72
2024/01/08 03:10:19;;;;;;;1.80;1.20;;;;;;;8.13;100.00;100349.69;2078769;28;20265;-72
2024/01/08 03:11:19;;;;;;;4.37;1.30;;;;;;;8.19;100.00;100350.75;2079180;28;20196;-73
2024/01/08 03:12:20;;;;;;;2.10;1.00;;;;;;;7.87;100.00;100300.09;2078313;28;20185;-72
2024/01/08 03:13:20;;;;;;;1.83;1.20;;;;;;;8.28;100.00;100347.47;2079845;28;20609;-72
2024/01/08 03:14:21;;;;;;;2.27;1.20;;;;;;;7.85;100.00;100272.94;2079518;28;20202;-72
2024/01/08 03:15:25;;;;;;;2.22;1.38;;;;;;;8.36;100.00;100349.66;2079603;28;20254;-72
2024/01/08 03:16:25;;;;;;;1.83;1.20;;;;;;;8.38;100.00;100354.78;2079519;28;20202;-72
2024/01/08 03:17:26;;;;;;;1.87;0.80;;;;;;;8.20;100.00;100337.78;2079512;28;20476;-72
2024/01/08 03:18:26;;;;;;;1.63;1.07;;;;;;;8.41;100.00;100353.94;2079278;28;20207;-72
2024/01/08 03:19:27;;;;;;;1.17;1.00;;;;;;;8.47;100.00;100357.75;2079457;28;20191;-72
2024/01/08 03:20:28;;;;;;;2.30;1.33;;;;;;;8.37;100.00;100345.72;2078815;28;20183;-72
2024/01/08 03:21:29;;;;;;;1.80;1.10;;;;;;;8.37;100.00;100356.78;2079454;28;20199;-72
2024/01/08 03:22:29;;;;;;;1.47;1.10;;;;;;;8.43;100.00;100365.31;2079951;28;20468;-72
2024/01/08 03:23:30;;;;;;;1.93;1.10;;;;;;;8.35;100.00;100361.16;2078477;28;20275;-72
2024/01/08 03:24:30;;;;;;;1.40;1.20;;;;;;;8.31;100.00;100368.72;2079122;28;20207;-72
2024/01/08 03:25:31;;;;;;;1.50;1.00;;;;;;;8.18;100.00;100367.72;2078161;28;20203;-72
2024/01/08 03:26:31;;;;;;;2.20;1.03;;;;;;;7.76;100.00;100305.81;2079353;28;20217;-72
2024/01/08 03:27:32;;;;;;;1.60;1.10;;;;;;;8.11;100.00;100365.88;2079092;28;20337;-72
2024/01/08 03:28:32;;;;;;;1.30;0.90;;;;;;;8.10;100.00;100364.31;2079285;28;20277;-72
2024/01/08 03:29:33;;;;;;;0.87;0.70;;;;;;;7.08;100.00;100227.41;2079194;28;20274;-72
2024/01/08 03:30:33;;;;;;;1.97;0.90;;;;;;;7.10;100.00;100240.78;2079270;28;20552;-72
2024/01/08 03:31:41;;;;;;;0.77;0.70;;;;;;;7.12;100.00;100247.41;2079262;28;20213;-72
2024/01/08 03:32:41;;;;;;;1.88;0.93;;;;;;;7.96;100.00;100372.06;2079726;28;20201;-72
2024/01/08 03:33:42;;;;;;;0.77;0.67;;;;;;;7.69;100.00;100327.22;2077830;28;20208;-72
2024/01/08 03:34:43;;;;;;;0.73;0.73;;;;;;;7.97;100.00;100366.16;2078807;28;20685;-72
2024/01/08 03:35:44;;;;;;;0.93;0.73;;;;;;;7.99;100.00;100376.78;2078446;28;20202;-72
2024/01/08 03:36:48;;;;;;;0.98;0.63;;;;;;;7.92;100.00;100379.63;2078389;28;20206;-72
2024/01/08 03:37:49;;;;;;;1.95;0.95;;;;;;;7.92;100.00;100382.38;2078342;28;20196;-72
2024/01/08 03:38:50;;;;;;;1.40;1.10;;;;;;;7.89;100.00;100383.25;2079242;28;20325;-72
2024/01/08 03:39:51;;;;;;;1.58;0.90;;;;;;;7.90;100.00;100384.81;2077724;28;20545;-72
2024/01/08 03:40:51;;;;;;;1.47;0.90;;;;;;;6.86;100.00;100228.16;2079230;28;20204;-72
2024/01/08 03:41:52;;;;;;;1.47;1.03;;;;;;;7.96;100.00;100385.88;2079218;28;20193;-72
2024/01/08 03:42:52;;;;;;;1.50;0.80;;;;;;;7.91;100.00;100389.91;2078247;28;20191;-72
2024/01/08 03:43:53;;;;;;;1.27;0.97;;;;;;;7.86;100.00;100387.63;2079081;28;20551;-72
2024/01/08 03:44:53;;;;;;;1.30;0.90;;;;;;;7.73;100.00;100388.59;2079347;28;20650;-72
2024/01/08 03:45:54;;;;;;;1.27;0.90;;;;;;;7.73;100.00;100391.38;2079106;28;20236;-72
2024/01/08 03:46:54;;;;;;;1.63;0.90;;;;;;;7.74;100.00;100401.22;2079090;28;20255;-72
2024/01/08 03:47:55;;;;;;;1.43;0.80;;;;;;;7.65;100.00;100398.22;2078942;28;20209;-72
2024/01/08 03:48:55;;;;;;;2.23;0.90;;;;;;;7.56;100.00;100393.22;2087423;28;20179;-72
2024/01/08 03:49:56;;;;;;;1.57;0.83;;;;;;;7.59;100.00;100402.63;2086650;28;20323;-72
2024/01/08 03:50:56;;;;;;;2.07;1.17;;;;;;;7.62;100.00;100404.53;2078612;28;20197;-72
2024/01/08 03:51:57;;;;;;;2.27;0.77;;;;;;;7.64;100.00;100411.19;2078850;28;20194;-72
2024/01/08 03:52:57;;;;;;;0.90;0.77;;;;;;;7.61;100.00;100398.28;2079049;28;20227;-72
2024/01/08 03:53:58;;;;;;;1.50;0.83;;;;;;;7.72;100.00;100422.91;2078512;28;20215;-72
2024/01/08 03:54:58;;;;;;;0.90;0.83;;;;;;;7.80;100.00;100416.84;2079091;28;20226;-72
2024/01/08 03:55:59;;;;;;;0.83;0.67;;;;;;;7.80;100.00;100416.84;2078756;28;20274;-72
2024/01/08 03:56:59;;;;;;;1.13;0.63;;;;;;;7.83;100.00;100405.00;2078748;28;20217;-72
2024/01/08 03:58:00;;;;;;;1.00;0.90;;;;;;;7.87;100.00;100405.72;2079106;28;20650;-72
2024/01/08 03:59:00;;;;;;;1.10;0.70;;;;;;;7.90;100.00;100420.66;2079231;28;20224;-72
2024/01/08 04:00:01;;;;;;;1.43;0.90;;;;;;;7.93;100.00;100422.56;2078952;28;20194;-73
2024/01/08 04:01:01;;;;;;;1.03;0.80;;;;;;;7.91;100.00;100416.69;2078392;28;20196;-72
2024/01/08 04:02:02;;;;;;;2.63;1.00;;;;;;;7.87;100.00;100422.28;2078553;28;20659;-72
2024/01/08 04:03:03;;;;;;;1.47;1.07;;;;;;;7.35;100.00;100368.72;2077783;28;20567;-72
2024/01/08 04:04:03;;;;;;;1.03;0.77;;;;;;;7.71;100.00;100422.16;2078941;28;20181;-73
2024/01/08 04:05:04;;;;;;;0.73;0.70;;;;;;;7.46;100.00;100399.69;2079690;28;20183;-72
2024/01/08 04:06:05;;;;;;;1.15;0.82;;;;;;;7.60;100.00;100432.56;2078429;28;20656;-73
2024/01/08 04:07:05;;;;;;;1.00;0.80;;;;;;;7.57;100.00;100432.59;2078865;28;20636;-72
2024/01/08 04:08:06;;;;;;;0.70;0.60;;;;;;;7.49;100.00;100431.16;2078977;28;20185;-72
2024/01/08 04:09:06;;;;;;;1.17;0.70;;;;;;;7.34;100.00;100443.56;2078981;28;20199;-72
2024/01/08 04:10:07;;;;;;;0.60;0.50;;;;;;;7.17;100.00;100437.09;2079042;28;20206;-72
2024/01/08 04:11:08;;;;;;;1.27;0.70;;;;;;;7.19;100.00;100434.72;2078077;28;20182;-72
2024/01/08 04:12:09;;;;;;;1.23;0.60;;;;;;;6.51;100.00;100339.56;2078926;28;20666;-72
2024/01/08 04:13:09;;;;;;;0.97;0.60;;;;;;;7.12;100.00;100439.53;2078462;28;20712;-72
2024/01/08 04:14:11;;;;;;;1.70;0.80;;;;;;;7.05;100.00;100434.91;2079344;28;20174;-72
2024/01/08 04:15:12;;;;;;;1.10;0.63;;;;;;;7.06;100.00;100447.47;2079308;28;20556;-73
2024/01/08 04:16:12;;;;;;;0.88;0.52;;;;;;;6.97;100.00;100430.66;2079093;28;21470;-72
2024/01/08 04:17:13;;;;;;;0.63;0.60;;;;;;;6.15;100.00;100313.63;2079261;28;20684;-72
2024/01/08 04:18:13;;;;;;;0.70;0.50;;;;;;;7.07;100.00;100451.78;2078896;28;20198;-72
2024/01/08 04:19:14;;;;;;;0.77;0.63;;;;;;;6.85;100.00;100442.22;2078909;28;20208;-72
2024/01/08 04:20:15;;;;;;;0.90;0.53;;;;;;;6.92;100.00;100461.41;2079207;28;20189;-72
2024/01/08 04:21:16;;;;;;;1.33;0.60;;;;;;;6.90;100.00;100460.25;2077700;28;20709;-72
2024/01/08 04:22:17;;;;;;;0.70;0.60;;;;;;;5.46;100.00;100243.59;2079101;28;20307;-72
2024/01/08 04:23:17;;;;;;;1.20;0.77;;;;;;;6.78;100.00;100456.09;2077902;28;20201;-72
2024/01/08 04:24:18;;;;;;;2.30;0.90;;;;;;;6.80;100.00;100448.19;2077287;28;20193;-72
2024/01/08 04:25:18;;;;;;;1.70;0.80;;;;;;;6.79;100.00;100463.16;2079262;28;20206;-73
2024/01/08 04:26:20;;;;;;;1.10;0.60;;;;;;;6.75;100.00;100467.13;2078834;28;20193;-72
2024/01/08 04:27:21;;;;;;;0.80;0.60;;;;;;;6.78;100.00;100472.59;2078913;28;20227;-72
2024/01/08 04:28:21;;;;;;;1.03;0.73;;;;;;;6.76;100.00;100469.47;2078680;28;20190;-72
2024/01/08 04:29:22;;;;;;;1.70;0.90;;;;;;;6.84;100.00;100478.44;2078669;28;20225;-72
2024/01/08 04:30:22;;;;;;;1.77;1.00;;;;;;;6.85;100.00;100477.22;2078160;28;20260;-72
2024/01/08 04:31:23;;;;;;;1.87;1.07;;;;;;;6.83;100.00;100477.63;2079181;28;20676;-72
2024/01/08 04:32:23;;;;;;;1.77;1.00;;;;;;;6.33;100.00;100412.50;2079016;28;20186;-72
2024/01/08 04:33:24;;;;;;;1.00;0.90;;;;;;;6.82;100.00;100484.34;2078221;28;20193;-72
2024/01/08 04:34:26;;;;;;;0.97;0.80;;;;;;;6.34;100.00;100428.63;2078680;28;20211;-72
2024/01/08 04:35:26;;;;;;;0.63;0.63;;;;;;;6.74;100.00;100495.84;2079063;28;20193;-72
2024/01/08 04:36:27;;;;;;;1.20;0.80;;;;;;;5.85;100.00;100368.53;2078738;28;20214;-72
2024/01/08 04:37:28;;;;;;;1.03;0.70;;;;;;;6.55;100.00;100480.69;2078352;28;20183;-72
2024/01/08 04:38:28;;;;;;;0.70;0.63;;;;;;;6.70;100.00;100503.34;2078508;28;20196;-72
2024/01/08 04:39:29;;;;;;;0.83;0.60;;;;;;;6.56;100.00;100473.25;2079401;28;20621;-72
2024/01/08 04:40:29;;;;;;;1.80;0.73;;;;;;;6.25;100.00;100436.56;2077657;28;20259;-72
2024/01/08 04:41:31;;;;;;;0.40;0.40;;;;;;;5.87;100.00;100381.91;2078877;28;20621;-72